Time;durP1;ratioP1;P1;durP2;ratioP2;P2;SDS_P1;SDS_P2;PMS_P1;PMS_P2;Temp;Humidity;BMP_temperature;BMP_pressure;BME280_temperature;BME280_humidity;BME280_pressure;Samples;Min_cycle;Max_cycle;Signal;HPM_P1;HPM_P2
2024/01/22 00:02:11;;;;;;;;;;;2.80;100.00;;;;;;5026004;28;20559;-70
2024/01/22 00:04:38;;;;;;;;;;;2.80;100.00;;;;;;5025252;28;19968;-70
2024/01/22 00:07:05;;;;;;;;;;;2.80;100.00;;;;;;5025468;28;19960;-70
2024/01/22 00:09:32;;;;;;;;;;;2.90;100.00;;;;;;5017981;28;19928;-70
2024/01/22 00:11:58;;;;;;;;;;;2.90;100.00;;;;;;5024417;28;20501;-71
2024/01/22 00:14:25;;;;;;;;;;;2.90;100.00;;;;;;5021576;28;20004;-70
2024/01/22 00:16:52;;;;;;;;;;;3.00;100.00;;;;;;5025337;28;19939;-70
2024/01/22 00:19:19;;;;;;;;;;;3.00;100.00;;;;;;5023332;28;20419;-70
2024/01/22 00:21:45;;;;;;;;;;;3.00;100.00;;;;;;5017719;28;20263;-70
2024/01/22 00:24:12;;;;;;;;;;;3.00;100.00;;;;;;5024202;28;19995;-71
2024/01/22 00:26:39;;;;;;;;;;;3.00;100.00;;;;;;5016311;28;19930;-70
2024/01/22 00:29:07;;;;;;;;;;;3.00;100.00;;;;;;5024357;28;20695;-70
2024/01/22 00:31:34;;;;;;;;;;;3.10;100.00;;;;;;5025653;28;19944;-70
2024/01/22 00:34:01;;;;;;;;;;;3.10;100.00;;;;;;5025007;28;19929;-70
2024/01/22 00:36:28;;;;;;;;;;;3.20;100.00;;;;;;5019112;28;19929;-70
2024/01/22 00:38:55;;;;;;;;;;;3.20;100.00;;;;;;5017785;28;19975;-70
2024/01/22 00:41:21;;;;;;;;;;;3.20;100.00;;;;;;5017556;28;19936;-70
2024/01/22 00:43:48;;;;;;;;;;;3.30;100.00;;;;;;5025438;28;20038;-70
2024/01/22 00:46:15;;;;;;;;;;;3.30;100.00;;;;;;5019427;28;20378;-69
2024/01/22 00:48:42;;;;;;;;;;;3.20;100.00;;;;;;5025179;28;20503;-70
2024/01/22 00:51:10;;;;;;;;;;;3.20;100.00;;;;;;5025602;28;19979;-70
2024/01/22 00:53:37;;;;;;;;;;;3.20;100.00;;;;;;5024687;28;19929;-70
2024/01/22 00:56:04;;;;;;;;;;;3.30;100.00;;;;;;5019327;28;19977;-71
2024/01/22 00:58:35;;;;;;;;;;;3.30;100.00;;;;;;5016765;28;19929;-70
2024/01/22 01:01:02;;;;;;;;;;;3.30;100.00;;;;;;5027380;28;19929;-70
2024/01/22 01:03:29;;;;;;;;;;;3.30;100.00;;;;;;5024117;28;19936;-70
2024/01/22 01:05:56;;;;;;;;;;;3.40;100.00;;;;;;5019734;28;19929;-70
2024/01/22 01:08:22;;;;;;;;;;;3.30;100.00;;;;;;5009857;28;19929;-70
2024/01/22 01:10:49;;;;;;;;;;;3.40;100.00;;;;;;5020050;28;19976;-70
2024/01/22 01:13:17;;;;;;;;;;;3.40;100.00;;;;;;5024880;28;19936;-70
2024/01/22 01:15:44;;;;;;;;;;;3.40;100.00;;;;;;5024868;28;20146;-70
2024/01/22 01:18:11;;;;;;;;;;;3.50;100.00;;;;;;5021427;28;19971;-69
2024/01/22 01:20:39;;;;;;;;;;;3.40;100.00;;;;;;5023117;28;19929;-69
2024/01/22 01:23:06;;;;;;;;;;;3.50;100.00;;;;;;5025772;28;20027;-70
2024/01/22 01:25:33;;;;;;;;;;;3.50;100.00;;;;;;5017072;28;20291;-70
2024/01/22 01:28:00;;;;;;;;;;;3.50;100.00;;;;;;5017485;28;19925;-69
2024/01/22 01:30:27;;;;;;;;;;;3.60;100.00;;;;;;5024779;28;19990;-69
2024/01/22 01:32:54;;;;;;;;;;;3.60;100.00;;;;;;5024674;28;20052;-70
2024/01/22 01:35:21;;;;;;;;;;;3.60;100.00;;;;;;5024873;28;20056;-69
2024/01/22 01:37:48;;;;;;;;;;;3.70;100.00;;;;;;5021390;28;20018;-69
2024/01/22 01:40:15;;;;;;;;;;;3.70;100.00;;;;;;5026503;28;20012;-70
2024/01/22 01:42:43;;;;;;;;;;;3.70;100.00;;;;;;5012684;28;19940;-69
2024/01/22 01:45:16;;;;;;;;;;;3.70;100.00;;;;;;5023797;28;19949;-69
2024/01/22 01:47:49;;;;;;;;;;;3.70;100.00;;;;;;5023853;28;19929;-69
2024/01/22 01:50:19;;;;;;;;;;;3.70;100.00;;;;;;5024859;28;20611;-69
2024/01/22 01:52:46;;;;;;;;;;;3.80;100.00;;;;;;5023883;28;19925;-69
2024/01/22 01:55:13;;;;;;;;;;;3.80;100.00;;;;;;5012013;28;19929;-70
2024/01/22 01:57:40;;;;;;;;;;;3.80;100.00;;;;;;5022085;28;19929;-68
2024/01/22 02:00:12;;;;;;;;;;;3.70;100.00;;;;;;5023961;28;19929;-69
2024/01/22 02:02:41;;;;;;;;;;;3.70;100.00;;;;;;5025074;28;19929;-69
2024/01/22 02:05:08;;;;;;;;;;;3.70;100.00;;;;;;5024577;28;19935;-69
2024/01/22 02:07:35;;;;;;;;;;;3.60;100.00;;;;;;5013087;28;20448;-70
2024/01/22 02:10:02;;;;;;;;;;;3.60;100.00;;;;;;5016090;28;20024;-68
2024/01/22 02:12:29;;;;;;;;;;;3.50;100.00;;;;;;5021987;28;19929;-69
2024/01/22 02:14:56;;;;;;;;;;;3.40;100.00;;;;;;5022613;28;20458;-70
2024/01/22 02:17:22;;;;;;;;;;;3.40;100.00;;;;;;5023421;28;19955;-70
2024/01/22 02:19:50;;;;;;;;;;;3.40;100.00;;;;;;5023699;28;19956;-70
2024/01/22 02:22:17;;;;;;;;;;;3.40;100.00;;;;;;5019211;28;19952;-71
2024/01/22 02:24:43;;;;;;;;;;;3.40;100.00;;;;;;5021618;28;20015;-70
2024/01/22 02:27:10;;;;;;;;;;;3.40;100.00;;;;;;5010579;28;19929;-70
2024/01/22 02:29:37;;;;;;;;;;;3.40;100.00;;;;;;5023471;28;20003;-70
2024/01/22 02:32:05;;;;;;;;;;;3.40;100.00;;;;;;5023908;28;20366;-70
2024/01/22 02:34:31;;;;;;;;;;;3.40;100.00;;;;;;5023352;28;20483;-70
2024/01/22 02:36:58;;;;;;;;;;;3.50;100.00;;;;;;5021891;28;20362;-69
2024/01/22 02:39:25;;;;;;;;;;;3.40;100.00;;;;;;5024161;28;20015;-70
2024/01/22 02:41:52;;;;;;;;;;;3.50;100.00;;;;;;5014017;28;20495;-70
2024/01/22 02:44:18;;;;;;;;;;;3.40;100.00;;;;;;5022227;28;20038;-70
2024/01/22 02:46:45;;;;;;;;;;;3.50;100.00;;;;;;5023205;28;20028;-70
2024/01/22 02:49:12;;;;;;;;;;;3.50;100.00;;;;;;5023619;28;20274;-70
2024/01/22 02:51:43;;;;;;;;;;;3.60;100.00;;;;;;5021679;28;20007;-70
2024/01/22 02:54:12;;;;;;;;;;;3.60;100.00;;;;;;5012339;28;19933;-70
2024/01/22 02:56:39;;;;;;;;;;;3.70;100.00;;;;;;5022533;28;19925;-70
2024/01/22 02:59:07;;;;;;;;;;;3.70;100.00;;;;;;5027084;28;19936;-69
2024/01/22 03:01:34;;;;;;;;;;;3.80;100.00;;;;;;5021901;28;19925;-69
2024/01/22 03:04:00;;;;;;;;;;;3.80;100.00;;;;;;5027946;28;19935;-70
2024/01/22 03:06:28;;;;;;;;;;;3.90;100.00;;;;;;5025012;28;19929;-70
2024/01/22 03:08:54;;;;;;;;;;;4.00;100.00;;;;;;5014544;28;19964;-70
2024/01/22 03:11:22;;;;;;;;;;;4.10;100.00;;;;;;5022427;28;19933;-70
2024/01/22 03:13:48;;;;;;;;;;;4.20;100.00;;;;;;5027150;28;19936;-70
2024/01/22 03:16:15;;;;;;;;;;;4.30;100.00;;;;;;5021147;28;20398;-70
2024/01/22 03:18:42;;;;;;;;;;;4.30;100.00;;;;;;5026718;28;19976;-69
2024/01/22 03:21:09;;;;;;;;;;;4.20;100.00;;;;;;5027009;28;19959;-70
2024/01/22 03:23:36;;;;;;;;;;;4.20;100.00;;;;;;5026088;28;19929;-69
2024/01/22 03:26:02;;;;;;;;;;;4.10;100.00;;;;;;5025785;28;20700;-70
2024/01/22 03:28:29;;;;;;;;;;;4.10;100.00;;;;;;5027040;28;19925;-69
2024/01/22 03:30:57;;;;;;;;;;;4.00;100.00;;;;;;5025893;28;19936;-69
2024/01/22 03:33:23;;;;;;;;;;;4.10;100.00;;;;;;5026749;28;20016;-70
2024/01/22 03:35:50;;;;;;;;;;;4.10;100.00;;;;;;5024275;28;19980;-70
2024/01/22 03:38:17;;;;;;;;;;;4.10;100.00;;;;;;5024918;28;19929;-70
2024/01/22 03:40:44;;;;;;;;;;;4.10;100.00;;;;;;5027465;28;19925;-70
2024/01/22 03:43:10;;;;;;;;;;;4.00;100.00;;;;;;5026803;28;19943;-70
2024/01/22 03:45:37;;;;;;;;;;;4.10;100.00;;;;;;5026745;28;20012;-70
2024/01/22 03:48:04;;;;;;;;;;;4.10;100.00;;;;;;5027062;28;19955;-70
2024/01/22 03:50:31;;;;;;;;;;;4.00;100.00;;;;;;5015671;28;20031;-70
2024/01/22 03:52:58;;;;;;;;;;;4.10;100.00;;;;;;5020467;28;19929;-70
2024/01/22 03:55:25;;;;;;;;;;;4.20;100.00;;;;;;5025983;28;20344;-70
2024/01/22 03:57:51;;;;;;;;;;;4.20;100.00;;;;;;5024522;28;19933;-71
2024/01/22 04:00:18;;;;;;;;;;;4.30;100.00;;;;;;5022125;28;19940;-70
2024/01/22 04:02:45;;;;;;;;;;;4.40;100.00;;;;;;5024734;28;20028;-70
2024/01/22 04:05:12;;;;;;;;;;;4.40;100.00;;;;;;5019627;28;19933;-70
2024/01/22 04:07:40;;;;;;;;;;;4.40;100.00;;;;;;5015692;28;20455;-70
2024/01/22 04:10:08;;;;;;;;;;;4.50;100.00;;;;;;5019532;28;19936;-70
2024/01/22 04:12:36;;;;;;;;;;;4.50;100.00;;;;;;5022310;28;19936;-71
2024/01/22 04:15:03;;;;;;;;;;;4.50;100.00;;;;;;5024381;28;19929;-70
2024/01/22 04:17:30;;;;;;;;;;;4.60;100.00;;;;;;5025091;28;20597;-70
2024/01/22 04:19:56;;;;;;;;;;;4.60;100.00;;;;;;5023628;28;20535;-70
2024/01/22 04:22:23;;;;;;;;;;;4.60;100.00;;;;;;5025737;28;19968;-70
2024/01/22 04:24:50;;;;;;;;;;;4.60;100.00;;;;;;5017316;28;20438;-70
2024/01/22 04:27:17;;;;;;;;;;;4.60;100.00;;;;;;5024539;28;19976;-70
2024/01/22 04:29:44;;;;;;;;;;;4.60;100.00;;;;;;5020703;28;19933;-70
2024/01/22 04:32:11;;;;;;;;;;;4.70;100.00;;;;;;5020994;28;19935;-71
2024/01/22 04:34:39;;;;;;;;;;;4.70;100.00;;;;;;5011164;28;19935;-70
2024/01/22 04:37:06;;;;;;;;;;;4.70;100.00;;;;;;5016848;28;19929;-70
2024/01/22 04:39:34;;;;;;;;;;;4.70;100.00;;;;;;5025485;28;19929;-71
2024/01/22 04:42:01;;;;;;;;;;;4.60;100.00;;;;;;5024512;28;19937;-70
2024/01/22 04:44:28;;;;;;;;;;;4.60;100.00;;;;;;5023653;28;19991;-70
2024/01/22 04:46:56;;;;;;;;;;;4.60;100.00;;;;;;5025167;28;20394;-70
2024/01/22 04:49:23;;;;;;;;;;;4.60;100.00;;;;;;5025629;28;19973;-71
2024/01/22 04:51:49;;;;;;;;;;;4.70;100.00;;;;;;5025926;28;20003;-70
2024/01/22 04:54:16;;;;;;;;;;;4.70;100.00;;;;;;5024470;28;20018;-70
2024/01/22 04:56:47;;;;;;;;;;;4.70;100.00;;;;;;5024861;28;20374;-70
2024/01/22 04:59:14;;;;;;;;;;;4.70;100.00;;;;;;5024970;28;19925;-69
2024/01/22 05:01:42;;;;;;;;;;;4.70;100.00;;;;;;5024114;28;19972;-70
2024/01/22 05:04:08;;;;;;;;;;;4.70;100.00;;;;;;5019094;28;19936;-70
2024/01/22 05:06:35;;;;;;;;;;;4.70;100.00;;;;;;5022310;28;19932;-69
2024/01/22 05:09:04;;;;;;;;;;;4.70;100.00;;;;;;5016914;28;19929;-69
2024/01/22 05:11:31;;;;;;;;;;;4.70;100.00;;;;;;5024253;28;20404;-69
2024/01/22 05:13:57;;;;;;;;;;;4.70;100.00;;;;;;5024632;28;19971;-70
2024/01/22 05:16:24;;;;;;;;;;;4.70;100.00;;;;;;5025120;28;20028;-69
2024/01/22 05:18:52;;;;;;;;;;;4.70;100.00;;;;;;5022442;28;19941;-69
2024/01/22 05:21:21;;;;;;;;;;;4.70;100.00;;;;;;5023524;28;20389;-70
2024/01/22 05:23:49;;;;;;;;;;;4.60;100.00;;;;;;5024357;28;19991;-70
2024/01/22 05:26:16;;;;;;;;;;;4.50;100.00;;;;;;5024856;28;19933;-70
2024/01/22 05:28:43;;;;;;;;;;;4.50;100.00;;;;;;5016725;28;20007;-70
2024/01/22 05:31:09;;;;;;;;;;;4.50;100.00;;;;;;5023919;28;20018;-70
2024/01/22 05:33:36;;;;;;;;;;;4.50;100.00;;;;;;5023579;28;19964;-71
2024/01/22 05:36:03;;;;;;;;;;;4.50;100.00;;;;;;5023305;28;20453;-71
2024/01/22 05:38:30;;;;;;;;;;;4.40;100.00;;;;;;5023859;28;19928;-71
2024/01/22 05:40:57;;;;;;;;;;;4.40;100.00;;;;;;5023162;28;19956;-70
2024/01/22 05:43:23;;;;;;;;;;;4.40;100.00;;;;;;5023709;28;19991;-71
2024/01/22 05:45:50;;;;;;;;;;;4.30;100.00;;;;;;5020578;28;19929;-70
2024/01/22 05:48:17;;;;;;;;;;;4.30;100.00;;;;;;5024114;28;19928;-71
2024/01/22 05:50:44;;;;;;;;;;;4.40;100.00;;;;;;5019476;28;19939;-71
2024/01/22 05:53:11;;;;;;;;;;;4.40;100.00;;;;;;5031886;28;19935;-71
2024/01/22 05:55:39;;;;;;;;;;;4.40;100.00;;;;;;5024013;28;19929;-70
2024/01/22 05:58:06;;;;;;;;;;;4.40;100.00;;;;;;5023950;28;19936;-71
2024/01/22 06:00:33;;;;;;;;;;;4.30;100.00;;;;;;5021009;28;19982;-71
2024/01/22 06:03:00;;;;;;;;;;;4.30;100.00;;;;;;5021605;28;19960;-71
2024/01/22 06:05:27;;;;;;;;;;;4.40;100.00;;;;;;5024353;28;19932;-72
2024/01/22 06:07:54;;;;;;;;;;;4.40;100.00;;;;;;5020832;28;19968;-71
2024/01/22 06:10:21;;;;;;;;;;;4.40;100.00;;;;;;5023848;28;19929;-72
2024/01/22 06:12:48;;;;;;;;;;;4.50;100.00;;;;;;5019969;28;19929;-71
2024/01/22 06:15:15;;;;;;;;;;;4.60;100.00;;;;;;5023352;28;19951;-71
2024/01/22 06:17:42;;;;;;;;;;;4.70;100.00;;;;;;5020868;28;19929;-73
2024/01/22 06:20:09;;;;;;;;;;;4.60;100.00;;;;;;5023315;28;19937;-71
2024/01/22 06:22:36;;;;;;;;;;;4.70;100.00;;;;;;5022028;28;19980;-70
2024/01/22 06:25:04;;;;;;;;;;;4.70;100.00;;;;;;5021937;28;19983;-70
2024/01/22 06:27:31;;;;;;;;;;;4.70;100.00;;;;;;5017718;28;19929;-70
2024/01/22 06:29:59;;;;;;;;;;;4.80;100.00;;;;;;5018505;28;19929;-70
2024/01/22 06:32:26;;;;;;;;;;;4.80;100.00;;;;;;5021462;28;19929;-72
2024/01/22 06:34:56;;;;;;;;;;;4.80;100.00;;;;;;5023752;28;19937;-69
2024/01/22 06:37:24;;;;;;;;;;;4.80;100.00;;;;;;5019791;28;20019;-71
2024/01/22 06:39:51;;;;;;;;;;;4.90;100.00;;;;;;5023934;28;19933;-70
2024/01/22 06:42:17;;;;;;;;;;;4.90;100.00;;;;;;5020636;28;19983;-70
2024/01/22 06:44:57;;;;;;;;;;;4.90;100.00;;;;;;5022038;28;20400;-71
2024/01/22 06:47:24;;;;;;;;;;;4.90;100.00;;;;;;5022834;28;19933;-71
2024/01/22 06:49:52;;;;;;;;;;;5.00;100.00;;;;;;5017400;28;19933;-71
2024/01/22 06:52:19;;;;;;;;;;;4.90;100.00;;;;;;5012722;28;20349;-71
2024/01/22 06:54:46;;;;;;;;;;;4.90;100.00;;;;;;5018966;28;19925;-71
2024/01/22 06:57:12;;;;;;;;;;;4.90;100.00;;;;;;5023866;28;19929;-71
2024/01/22 06:59:39;;;;;;;;;;;4.80;100.00;;;;;;5021294;28;19929;-71
2024/01/22 07:02:06;;;;;;;;;;;4.80;100.00;;;;;;5009921;28;20585;-71
2024/01/22 07:04:33;;;;;;;;;;;4.80;100.00;;;;;;5023763;28;19933;-71
2024/01/22 07:07:00;;;;;;;;;;;4.80;100.00;;;;;;5017072;28;19980;-71
2024/01/22 07:09:26;;;;;;;;;;;4.80;100.00;;;;;;5022370;28;19929;-71
2024/01/22 07:11:53;;;;;;;;;;;4.80;100.00;;;;;;5014872;28;19969;-70
2024/01/22 07:14:20;;;;;;;;;;;4.80;100.00;;;;;;5004227;28;19936;-71
2024/01/22 07:16:47;;;;;;;;;;;4.80;100.00;;;;;;5019623;28;19933;-70
2024/01/22 07:19:14;;;;;;;;;;;4.80;100.00;;;;;;5020829;28;20405;-71
2024/01/22 07:21:41;;;;;;;;;;;4.80;100.00;;;;;;5021817;28;19929;-71
2024/01/22 07:24:07;;;;;;;;;;;4.90;100.00;;;;;;5023732;28;20770;-71
2024/01/22 07:26:34;;;;;;;;;;;4.90;100.00;;;;;;5021747;28;19945;-72
2024/01/22 07:29:01;;;;;;;;;;;5.00;100.00;;;;;;5010758;28;19929;-71
2024/01/22 07:31:28;;;;;;;;;;;5.00;100.00;;;;;;5023952;28;19929;-71
2024/01/22 07:33:55;;;;;;;;;;;5.00;100.00;;;;;;5021571;28;19929;-71
2024/01/22 07:36:22;;;;;;;;;;;5.10;100.00;;;;;;5017243;28;19944;-71
2024/01/22 07:38:54;;;;;;;;;;;5.10;100.00;;;;;;5022071;28;19991;-71
2024/01/22 07:41:21;;;;;;;;;;;5.10;100.00;;;;;;5018687;28;19959;-71
2024/01/22 07:43:48;;;;;;;;;;;5.20;100.00;;;;;;5020591;28;20053;-71
2024/01/22 07:46:14;;;;;;;;;;;5.10;100.00;;;;;;5020420;28;19937;-71
2024/01/22 07:48:41;;;;;;;;;;;5.20;100.00;;;;;;5026363;28;19929;-71
2024/01/22 07:51:08;;;;;;;;;;;5.20;100.00;;;;;;5025506;28;20036;-71
2024/01/22 07:53:35;;;;;;;;;;;5.20;100.00;;;;;;5026635;28;19933;-71
2024/01/22 07:56:02;;;;;;;;;;;5.20;100.00;;;;;;5026910;28;20043;-71
2024/01/22 07:58:29;;;;;;;;;;;5.30;100.00;;;;;;5024342;28;20405;-71
2024/01/22 08:00:56;;;;;;;;;;;5.30;100.00;;;;;;5023584;28;19928;-71
2024/01/22 08:03:22;;;;;;;;;;;5.30;100.00;;;;;;5026256;28;20644;-72
2024/01/22 08:05:49;;;;;;;;;;;5.30;100.00;;;;;;5024851;28;19936;-71
2024/01/22 08:08:16;;;;;;;;;;;5.30;100.00;;;;;;5019324;28;19991;-71
2024/01/22 08:10:43;;;;;;;;;;;5.40;100.00;;;;;;5024098;28;19979;-71
2024/01/22 08:13:11;;;;;;;;;;;5.40;100.00;;;;;;5010748;28;19941;-71
2024/01/22 08:15:38;;;;;;;;;;;5.40;100.00;;;;;;5014775;28;19933;-71
2024/01/22 08:18:04;;;;;;;;;;;5.40;100.00;;;;;;5024448;28;19929;-71
2024/01/22 08:20:31;;;;;;;;;;;5.40;100.00;;;;;;5025025;28;19933;-71
2024/01/22 08:23:00;;;;;;;;;;;5.50;100.00;;;;;;5012336;28;19929;-71
2024/01/22 08:25:28;;;;;;;;;;;5.50;100.00;;;;;;5022973;28;19987;-71
2024/01/22 08:27:55;;;;;;;;;;;5.50;100.00;;;;;;5011406;28;19967;-71
2024/01/22 08:30:22;;;;;;;;;;;5.60;100.00;;;;;;5020720;28;19933;-71
2024/01/22 08:32:48;;;;;;;;;;;5.60;100.00;;;;;;5017441;28;20013;-71
2024/01/22 08:35:17;;;;;;;;;;;5.60;100.00;;;;;;5021951;28;19936;-71
2024/01/22 08:37:52;;;;;;;;;;;5.60;100.00;;;;;;5024684;28;20056;-70
2024/01/22 08:40:21;;;;;;;;;;;5.70;100.00;;;;;;5023660;28;20516;-71
2024/01/22 08:42:52;;;;;;;;;;;5.70;100.00;;;;;;5023641;28;20024;-70
2024/01/22 08:45:20;;;;;;;;;;;5.70;100.00;;;;;;5013591;28;19925;-70
2024/01/22 08:47:50;;;;;;;;;;;5.80;100.00;;;;;;5024007;28;19929;-71
2024/01/22 08:50:19;;;;;;;;;;;5.80;100.00;;;;;;5026221;28;19929;-71
2024/01/22 08:52:45;;;;;;;;;;;5.90;100.00;;;;;;5026050;28;19929;-71
2024/01/22 08:55:12;;;;;;;;;;;5.90;100.00;;;;;;5022017;28;19937;-71
2024/01/22 08:57:39;;;;;;;;;;;6.00;100.00;;;;;;5025636;28;19925;-71
2024/01/22 09:00:10;;;;;;;;;;;6.10;100.00;;;;;;5015014;28;19937;-71
2024/01/22 09:02:39;;;;;;;;;;;6.20;100.00;;;;;;5024598;28;20026;-71
2024/01/22 09:05:10;;;;;;;;;;;6.30;100.00;;;;;;5025820;28;19933;-71
2024/01/22 09:07:37;;;;;;;;;;;6.40;100.00;;;;;;5023005;28;19960;-71
2024/01/22 09:10:07;;;;;;;;;;;6.50;100.00;;;;;;5018220;28;20325;-71
2024/01/22 09:12:34;;;;;;;;;;;6.80;100.00;;;;;;5025529;28;20285;-71
2024/01/22 09:15:01;;;;;;;;;;;6.90;100.00;;;;;;5013952;28;20012;-71
2024/01/22 09:17:29;;;;;;;;;;;7.00;100.00;;;;;;5024525;28;19935;-71
2024/01/22 09:19:59;;;;;;;;;;;7.10;100.00;;;;;;5024925;28;19928;-71
2024/01/22 09:22:26;;;;;;;;;;;7.30;100.00;;;;;;5025629;28;19932;-70
2024/01/22 09:24:53;;;;;;;;;;;7.50;100.00;;;;;;5018697;28;20048;-70
2024/01/22 09:27:19;;;;;;;;;;;7.60;100.00;;;;;;5021932;28;20365;-71
2024/01/22 09:29:46;;;;;;;;;;;7.70;100.00;;;;;;5025296;28;19979;-71
2024/01/22 09:32:13;;;;;;;;;;;7.80;100.00;;;;;;5024510;28;20330;-70
2024/01/22 09:34:40;;;;;;;;;;;7.80;100.00;;;;;;5024868;28;19936;-71
2024/01/22 09:37:07;;;;;;;;;;;7.80;100.00;;;;;;5025040;28;19936;-71
2024/01/22 09:39:33;;;;;;;;;;;7.90;100.00;;;;;;5024981;28;20558;-71
2024/01/22 09:42:00;;;;;;;;;;;7.90;100.00;;;;;;5009783;28;19929;-70
2024/01/22 09:44:28;;;;;;;;;;;7.90;100.00;;;;;;5020021;28;19975;-70
2024/01/22 09:46:55;;;;;;;;;;;7.90;100.00;;;;;;5024491;28;19975;-70
2024/01/22 09:49:23;;;;;;;;;;;8.00;100.00;;;;;;5023866;28;19933;-70
2024/01/22 09:51:51;;;;;;;;;;;8.10;100.00;;;;;;5022608;28;20541;-70
2024/01/22 09:54:18;;;;;;;;;;;8.10;100.00;;;;;;5020937;28;19964;-70
2024/01/22 09:56:53;;;;;;;;;;;8.30;100.00;;;;;;5022114;28;20655;-70
2024/01/22 09:59:23;;;;;;;;;;;8.30;100.00;;;;;;5024525;28;19929;-70
2024/01/22 10:01:50;;;;;;;;;;;8.50;100.00;;;;;;5024460;28;19929;-71
2024/01/22 10:04:17;;;;;;;;;;;8.60;100.00;;;;;;5023821;28;20355;-70
2024/01/22 10:06:45;;;;;;;;;;;8.60;100.00;;;;;;5015440;28;19929;-71
2024/01/22 10:09:15;;;;;;;;;;;8.70;100.00;;;;;;5018716;28;19933;-70
2024/01/22 10:11:42;;;;;;;;;;;8.70;100.00;;;;;;5022921;28;20032;-70
2024/01/22 10:14:09;;;;;;;;;;;8.80;100.00;;;;;;5027720;28;19925;-70
2024/01/22 10:16:39;;;;;;;;;;;8.80;100.00;;;;;;5024628;28;19960;-70
2024/01/22 10:19:07;;;;;;;;;;;8.70;100.00;;;;;;5022829;28;20393;-70
2024/01/22 10:21:35;;;;;;;;;;;8.70;100.00;;;;;;5024728;28;20008;-71
2024/01/22 10:24:03;;;;;;;;;;;8.60;100.00;;;;;;5021207;28;20058;-70
2024/01/22 10:26:30;;;;;;;;;;;8.70;100.00;;;;;;5024768;28;19936;-70
2024/01/22 10:29:13;;;;;;;;;;;8.60;100.00;;;;;;5024635;28;19983;-70
2024/01/22 10:31:53;;;;;;;;;;;8.70;100.00;;;;;;5023918;28;19987;-70
2024/01/22 10:34:21;;;;;;;;;;;8.70;100.00;;;;;;5017443;28;19979;-70
2024/01/22 10:37:04;;;;;;;;;;;8.80;100.00;;;;;;5025334;28;20409;-70
2024/01/22 10:39:31;;;;;;;;;;;8.80;100.00;;;;;;5020796;28;20393;-70
2024/01/22 10:42:10;;;;;;;;;;;8.80;100.00;;;;;;5015493;28;19937;-70
2024/01/22 10:44:37;;;;;;;;;;;8.80;100.00;;;;;;5023933;28;20357;-70
2024/01/22 10:47:05;;;;;;;;;;;8.80;100.00;;;;;;5021373;28;19937;-70
2024/01/22 10:49:33;;;;;;;;;;;8.80;100.00;;;;;;5022070;28;19940;-70
2024/01/22 10:52:02;;;;;;;;;;;8.80;100.00;;;;;;5020568;28;19929;-70
2024/01/22 10:54:29;;;;;;;;;;;8.80;100.00;;;;;;5023899;28;20455;-70
2024/01/22 10:57:03;;;;;;;;;;;8.90;100.00;;;;;;5022853;28;19929;-70
2024/01/22 10:59:39;;;;;;;;;;;8.90;100.00;;;;;;5021860;28;19929;-71
2024/01/22 11:02:09;;;;;;;;;;;9.00;100.00;;;;;;5017334;28;19929;-70
2024/01/22 11:04:38;;;;;;;;;;;9.00;100.00;;;;;;5001253;28;19945;-71
2024/01/22 11:07:05;;;;;;;;;;;9.00;100.00;;;;;;5018904;28;19929;-70
2024/01/22 11:09:32;;;;;;;;;;;9.00;100.00;;;;;;5018512;28;19929;-71
2024/01/22 11:12:02;;;;;;;;;;;9.00;100.00;;;;;;5023413;28;19929;-71
2024/01/22 11:14:30;;;;;;;;;;;9.00;100.00;;;;;;5017537;28;20008;-71
2024/01/22 11:16:57;;;;;;;;;;;9.00;100.00;;;;;;5014536;28;19991;-71
2024/01/22 11:19:24;;;;;;;;;;;9.00;100.00;;;;;;5020543;28;20470;-71
2024/01/22 11:21:52;;;;;;;;;;;8.90;100.00;;;;;;5023683;28;20031;-71
2024/01/22 11:24:22;;;;;;;;;;;8.90;100.00;;;;;;5025643;28;20048;-71
2024/01/22 11:26:52;;;;;;;;;;;9.00;100.00;;;;;;5022275;28;19964;-71
2024/01/22 11:29:24;;;;;;;;;;;9.00;100.00;;;;;;5021972;28;19929;-71
2024/01/22 11:31:51;;;;;;;;;;;9.10;100.00;;;;;;5023018;28;19929;-71
2024/01/22 11:34:37;;;;;;;;;;;9.20;100.00;;;;;;5026803;28;19929;-71
2024/01/22 11:37:06;;;;;;;;;;;9.30;100.00;;;;;;5019853;28;19939;-71
2024/01/22 11:39:33;;;;;;;;;;;9.40;100.00;;;;;;5016773;28;19933;-71
2024/01/22 11:42:16;;;;;;;;;;;9.30;100.00;;;;;;5023746;28;19929;-71
2024/01/22 11:44:46;;;;;;;;;;;9.20;100.00;;;;;;5026814;28;19929;-71
2024/01/22 11:47:15;;;;;;;;;;;9.20;100.00;;;;;;5024581;28;20771;-71
2024/01/22 11:49:43;;;;;;;;;;;9.20;100.00;;;;;;5020800;28;19936;-71
2024/01/22 11:52:10;;;;;;;;;;;9.20;100.00;;;;;;5024075;28;19929;-71
2024/01/22 11:54:37;;;;;;;;;;;9.20;100.00;;;;;;5027064;28;19936;-71
2024/01/22 11:57:04;;;;;;;;;;;9.10;100.00;;;;;;5026706;28;19929;-71
2024/01/22 11:59:31;;;;;;;;;;;9.00;100.00;;;;;;5023791;28;20434;-71
2024/01/22 12:02:10;;;;;;;;;;;8.90;100.00;;;;;;5026292;28;20373;-71
2024/01/22 12:04:36;;;;;;;;;;;8.80;100.00;;;;;;5023742;28;20347;-71
2024/01/22 12:07:03;;;;;;;;;;;8.70;100.00;;;;;;5024925;28;19937;-71
2024/01/22 12:09:33;;;;;;;;;;;8.50;100.00;;;;;;5025355;28;20538;-71
2024/01/22 12:12:04;;;;;;;;;;;8.40;100.00;;;;;;5027019;28;19933;-71
2024/01/22 12:14:31;;;;;;;;;;;8.30;100.00;;;;;;5025980;28;19929;-72
2024/01/22 12:17:03;;;;;;;;;;;8.10;100.00;;;;;;5026601;28;19935;-72
2024/01/22 12:19:31;;;;;;;;;;;8.10;100.00;;;;;;5024593;28;19929;-71
2024/01/22 12:21:57;;;;;;;;;;;7.90;100.00;;;;;;5023299;28;19929;-71
2024/01/22 12:24:24;;;;;;;;;;;7.90;100.00;;;;;;5019921;28;20652;-72
2024/01/22 12:26:52;;;;;;;;;;;7.80;100.00;;;;;;5025068;28;19929;-71
2024/01/22 12:29:22;;;;;;;;;;;7.80;100.00;;;;;;5018912;28;19925;-72
2024/01/22 12:31:49;;;;;;;;;;;7.70;100.00;;;;;;5024980;28;19940;-71
2024/01/22 12:34:17;;;;;;;;;;;7.60;100.00;;;;;;5022554;28;20011;-71
2024/01/22 12:36:44;;;;;;;;;;;7.60;100.00;;;;;;5026134;28;19965;-71
2024/01/22 12:39:18;;;;;;;;;;;7.60;100.00;;;;;;5025457;28;19964;-71
2024/01/22 12:41:45;;;;;;;;;;;7.60;100.00;;;;;;5025260;28;20351;-71
2024/01/22 12:44:15;;;;;;;;;;;7.70;100.00;;;;;;5026664;28;19981;-71
2024/01/22 12:46:42;;;;;;;;;;;7.60;100.00;;;;;;5018961;28;19935;-71
2024/01/22 12:49:09;;;;;;;;;;;7.60;100.00;;;;;;5020930;28;19929;-71
2024/01/22 12:51:36;;;;;;;;;;;7.60;100.00;;;;;;5021572;28;19933;-71
2024/01/22 12:54:05;;;;;;;;;;;7.60;100.00;;;;;;5015437;28;19959;-71
2024/01/22 12:56:32;;;;;;;;;;;7.60;100.00;;;;;;5016743;28;20453;-71
2024/01/22 12:58:59;;;;;;;;;;;7.60;100.00;;;;;;5025266;28;19929;-71
2024/01/22 13:01:28;;;;;;;;;;;7.60;100.00;;;;;;5021865;28;20484;-71
2024/01/22 13:03:56;;;;;;;;;;;7.60;100.00;;;;;;5019295;28;19933;-72
2024/01/22 13:06:24;;;;;;;;;;;7.60;100.00;;;;;;5025177;28;20282;-71
2024/01/22 13:08:51;;;;;;;;;;;7.60;100.00;;;;;;5016353;28;19936;-71
2024/01/22 13:11:18;;;;;;;;;;;7.60;100.00;;;;;;5025397;28;19929;-71
2024/01/22 13:13:45;;;;;;;;;;;7.60;100.00;;;;;;5024725;28;19933;-71
2024/01/22 13:16:12;;;;;;;;;;;7.60;100.00;;;;;;5025285;28;19929;-72
2024/01/22 13:18:45;;;;;;;;;;;7.60;100.00;;;;;;5023907;28;20305;-71
2024/01/22 13:21:15;;;;;;;;;;;7.50;100.00;;;;;;5024990;28;19936;-72
2024/01/22 13:23:42;;;;;;;;;;;7.50;100.00;;;;;;5020558;28;19929;-70
2024/01/22 13:26:09;;;;;;;;;;;7.50;100.00;;;;;;5023035;28;20477;-71
2024/01/22 13:28:36;;;;;;;;;;;7.50;100.00;;;;;;5024612;28;19960;-71
2024/01/22 13:31:04;;;;;;;;;;;7.40;100.00;;;;;;5017921;28;19929;-71
2024/01/22 13:33:31;;;;;;;;;;;7.40;100.00;;;;;;5022237;28;19976;-71
2024/01/22 13:35:58;;;;;;;;;;;7.40;100.00;;;;;;5022461;28;20007;-72
2024/01/22 13:38:28;;;;;;;;;;;7.40;100.00;;;;;;5023314;28;19995;-71
2024/01/22 13:40:56;;;;;;;;;;;7.40;100.00;;;;;;5022253;28;19979;-71
2024/01/22 13:43:23;;;;;;;;;;;7.40;100.00;;;;;;5025260;28;19933;-71
2024/01/22 13:45:51;;;;;;;;;;;7.40;100.00;;;;;;5022789;28;20389;-71
2024/01/22 13:48:17;;;;;;;;;;;7.50;100.00;;;;;;5016105;28;19937;-72
2024/01/22 13:50:44;;;;;;;;;;;7.50;100.00;;;;;;5024943;28;19933;-72
2024/01/22 13:53:12;;;;;;;;;;;7.50;100.00;;;;;;5024975;28;19972;-72
2024/01/22 13:55:39;;;;;;;;;;;7.40;100.00;;;;;;5020322;28;19968;-71
2024/01/22 13:58:07;;;;;;;;;;;7.40;100.00;;;;;;5019663;28;19938;-71
2024/01/22 14:00:34;;;;;;;;;;;7.40;100.00;;;;;;5024579;28;19933;-71
2024/01/22 14:03:04;;;;;;;;;;;7.40;100.00;;;;;;5022361;28;19988;-71
2024/01/22 14:05:31;;;;;;;;;;;7.40;100.00;;;;;;5023446;28;19999;-71
2024/01/22 14:07:58;;;;;;;;;;;7.40;100.00;;;;;;5022925;28;20017;-71
2024/01/22 14:10:26;;;;;;;;;;;7.40;100.00;;;;;;5024478;28;20038;-71
2024/01/22 14:12:53;;;;;;;;;;;7.40;100.00;;;;;;5023806;28;19929;-71
2024/01/22 14:15:21;;;;;;;;;;;7.30;100.00;;;;;;5020021;28;20658;-70
2024/01/22 14:17:48;;;;;;;;;;;7.30;100.00;;;;;;5021637;28;19929;-71
2024/01/22 14:20:15;;;;;;;;;;;7.30;100.00;;;;;;5024216;28;19936;-70